Taft, Tennessee
Current Conditions -  °F | °C
As of 6:15 PM on Monday 20 Oct 2014 (Local Time) from KFYM Reporting Station
Clear Clear  
Wind Chill: 57°   Ceiling: Unl
Heat Index: 57°   Visibility: 10mi
Dew Point: 48°   Wind: 18mph
Humidity: 72%   Direction: 190°S
Pressure: 30.01"   Gusts: 275mph
Location:  35.02°N, 86.72°W
Report Text: KFYM 202315Z AUTO 19016G239KT 10SM CLR 14/09 A3001 RMK
Loading
Personal Weather Stations






























Interactive Weather Map
Tropical Storm Tracking
New forecast layout! Learn more

10-Day Weather Forecast

Advertisements
Track Severe Weather on mobile